createdAt,value
2018-07-10T00:02:30.647Z,2.60
2018-07-10T00:07:20.624Z,5.30
2018-07-10T00:19:57.123Z,3.37
2018-07-10T00:22:26.892Z,2.60
2018-07-10T00:24:56.720Z,4.43
2018-07-10T00:27:26.545Z,8.00
2018-07-10T00:29:56.324Z,7.23
2018-07-10T00:32:29.672Z,4.53
2018-07-10T00:34:59.530Z,6.07
2018-07-10T00:37:29.940Z,5.20
2018-07-10T00:39:59.783Z,3.47
2018-07-10T00:42:29.781Z,5.13
2018-07-10T00:44:59.598Z,5.77
2018-07-10T00:47:29.485Z,5.27
2018-07-10T00:49:59.293Z,4.00
2018-07-10T00:52:34.210Z,3.63
2018-07-10T00:55:03.980Z,3.93
2018-07-10T00:57:33.954Z,2.87
2018-07-10T01:00:04.167Z,6.83
2018-07-10T01:02:34.097Z,11.50
2018-07-10T01:05:04.253Z,5.37
2018-07-10T01:07:33.751Z,3.80
2018-07-10T01:10:03.344Z,3.87
2018-07-10T01:12:33.544Z,3.30
2018-07-10T01:15:03.394Z,3.73
2018-07-10T01:17:33.357Z,4.50
2018-07-10T01:20:03.197Z,6.10
2018-07-10T01:22:33.024Z,4.40
2018-07-10T01:25:02.932Z,5.73
2018-07-10T01:27:32.776Z,8.83
2018-07-10T01:30:02.649Z,8.20
2018-07-10T01:32:32.496Z,6.47
2018-07-10T01:35:02.329Z,3.00
2018-07-10T01:37:33.053Z,4.67
2018-07-10T01:40:03.152Z,9.23
2018-07-10T01:42:39.712Z,7.23
2018-07-10T01:45:09.233Z,8.33
2018-07-10T01:47:38.813Z,3.60
2018-07-10T01:50:09.224Z,9.73
2018-07-10T01:52:39.081Z,6.53
2018-07-10T01:55:08.910Z,6.30
2018-07-10T01:57:38.816Z,5.77
2018-07-10T02:00:10.872Z,5.67
2018-07-10T02:02:40.359Z,6.90
2018-07-10T02:05:11.649Z,4.83
2018-07-10T02:07:41.514Z,12.33
2018-07-10T02:10:12.184Z,6.80
2018-07-10T02:12:42.010Z,4.83
2018-07-10T02:15:11.921Z,7.90
2018-07-10T02:17:41.740Z,9.80
2018-07-10T02:20:11.810Z,5.70
2018-07-10T02:22:43.101Z,5.77
2018-07-10T02:25:13.014Z,5.67
2018-07-10T02:27:42.829Z,5.33
2018-07-10T02:30:12.697Z,3.70
2018-07-10T02:32:42.193Z,3.87
2018-07-10T02:35:12.015Z,5.77
2018-07-10T02:37:44.014Z,5.33
2018-07-10T02:40:13.872Z,2.83
2018-07-10T02:42:44.104Z,6.43
2018-07-10T02:45:16.012Z,5.80
2018-07-10T02:47:45.876Z,5.90
2018-07-10T02:50:15.728Z,3.90
2018-07-10T02:52:46.152Z,9.20
2018-07-10T02:55:15.980Z,6.07
2018-07-10T02:57:45.831Z,5.20
2018-07-10T03:00:15.664Z,9.10
2018-07-10T03:02:45.598Z,10.70
2018-07-10T03:05:15.406Z,4.70
2018-07-10T03:07:45.664Z,4.07
2018-07-10T03:10:16.168Z,4.13
2018-07-10T03:12:46.280Z,6.70
2018-07-10T03:15:16.090Z,6.30
2018-07-10T03:17:45.984Z,4.90
2018-07-10T03:20:16.018Z,4.17
2018-07-10T03:22:45.922Z,4.93
2018-07-10T03:25:15.764Z,7.20
2018-07-10T03:27:45.596Z,4.73
2018-07-10T03:30:15.461Z,3.93
2018-07-10T03:32:45.336Z,12.20
2018-07-10T03:35:15.150Z,7.67
2018-07-10T03:37:45.017Z,8.07
2018-07-10T03:40:15.679Z,6.77
2018-07-10T03:42:45.965Z,3.80
2018-07-10T03:45:16.453Z,10.70
2018-07-10T03:47:46.728Z,6.27
2018-07-10T03:50:16.644Z,7.10
2018-07-10T03:52:46.456Z,3.50
2018-07-10T03:55:18.463Z,2.40
2018-07-10T03:57:51.154Z,4.50
2018-07-10T04:00:20.981Z,7.23
2018-07-10T04:02:51.993Z,7.37
2018-07-10T04:05:23.569Z,11.03
2018-07-10T04:07:55.862Z,5.93
2018-07-10T04:10:33.252Z,3.37
2018-07-10T04:13:08.942Z,4.70
2018-07-10T04:15:39.527Z,10.23
2018-07-10T04:18:12.753Z,8.60
2018-07-10T04:21:48.708Z,8.20
2018-07-10T04:24:19.239Z,3.10
2018-07-10T04:28:28.092Z,8.83
2018-07-10T04:41:12.132Z,7.33
2018-07-10T04:43:46.242Z,5.40
2018-07-10T04:46:16.093Z,3.43
2018-07-10T04:48:47.234Z,6.30
2018-07-10T04:51:36.365Z,6.63
2018-07-10T04:54:23.050Z,5.30
2018-07-10T04:56:58.402Z,5.13
2018-07-10T04:59:30.652Z,4.87
2018-07-10T05:02:05.078Z,7.43
2018-07-10T05:04:45.011Z,8.73
2018-07-10T05:07:17.093Z,7.67
2018-07-10T05:09:46.955Z,5.17
2018-07-10T05:12:16.793Z,5.90
2018-07-10T05:14:50.829Z,5.47
2018-07-10T05:17:20.667Z,5.00
2018-07-10T05:19:51.583Z,9.67
2018-07-10T05:22:21.497Z,5.63
2018-07-10T05:24:52.040Z,9.90
2018-07-10T05:27:21.936Z,10.40
2018-07-10T05:29:51.851Z,5.93
2018-07-10T05:32:22.068Z,3.03
2018-07-10T05:34:51.904Z,8.50
2018-07-10T05:37:29.328Z,7.07
2018-07-10T05:40:00.749Z,4.17
2018-07-10T05:42:30.697Z,9.37
2018-07-10T05:45:01.453Z,6.33
2018-07-10T05:47:32.737Z,3.83
2018-07-10T05:50:07.360Z,7.33
2018-07-10T05:52:37.278Z,7.30
2018-07-10T05:55:07.168Z,5.80
2018-07-10T05:57:37.082Z,5.70
2018-07-10T06:00:06.924Z,2.97
2018-07-10T06:02:36.795Z,4.30
2018-07-10T06:05:06.653Z,11.00
2018-07-10T06:07:36.769Z,4.20
2018-07-10T06:10:06.600Z,5.53
2018-07-10T06:12:36.489Z,4.77
2018-07-10T06:15:06.308Z,3.77
2018-07-10T06:17:36.201Z,4.70
2018-07-10T06:20:06.053Z,5.07
2018-07-10T06:22:35.894Z,5.57
2018-07-10T06:25:07.652Z,4.13
2018-07-10T06:27:45.213Z,4.97
2018-07-10T06:30:15.368Z,8.80
2018-07-10T06:33:55.039Z,6.40
2018-07-10T06:36:28.718Z,4.97
2018-07-10T06:39:05.412Z,4.27
2018-07-10T06:41:37.674Z,2.90
2018-07-10T06:44:07.553Z,6.93
2018-07-10T06:46:46.100Z,6.70
2018-07-10T06:49:23.330Z,8.47
2018-07-10T06:52:03.230Z,3.87
2018-07-10T06:54:40.932Z,2.67
2018-07-10T06:57:10.975Z,4.50
2018-07-10T06:59:41.464Z,7.17
2018-07-10T07:02:12.218Z,3.73
2018-07-10T07:04:42.072Z,3.47
2018-07-10T07:07:14.107Z,7.27
2018-07-10T07:19:34.279Z,11.60
2018-07-10T07:22:04.091Z,4.90
2018-07-10T07:24:33.560Z,10.00
2018-07-10T07:27:03.896Z,5.47
2018-07-10T07:29:33.805Z,6.40
2018-07-10T07:32:03.819Z,6.30
2018-07-10T07:34:33.726Z,4.00
2018-07-10T07:37:03.512Z,8.37
2018-07-10T07:39:34.225Z,6.63
2018-07-10T07:42:04.242Z,5.70
2018-07-10T07:44:34.191Z,6.13
2018-07-10T07:47:04.035Z,11.93
2018-07-10T07:49:33.900Z,6.53
2018-07-10T07:52:03.743Z,6.33
2018-07-10T07:54:33.732Z,6.70
2018-07-10T07:57:04.245Z,6.37
2018-07-10T07:59:34.125Z,5.03
2018-07-10T08:02:04.059Z,7.57
2018-07-10T08:04:33.932Z,12.13
2018-07-10T08:07:03.907Z,9.67
2018-07-10T08:09:33.742Z,4.53
2018-07-10T08:12:03.792Z,3.90
2018-07-10T08:14:33.765Z,6.50
2018-07-10T08:17:03.684Z,12.13
2018-07-10T08:19:33.552Z,7.23
2018-07-10T08:22:03.418Z,5.57
2018-07-10T08:24:33.780Z,16.33
2018-07-10T08:27:03.944Z,7.10
2018-07-10T08:29:33.825Z,5.10
2018-07-10T08:32:07.362Z,10.37
2018-07-10T08:34:37.465Z,10.10
2018-07-10T08:37:07.360Z,10.57
2018-07-10T08:39:37.224Z,7.97
2018-07-10T08:42:07.412Z,6.03
2018-07-10T08:44:36.928Z,8.47
2018-07-10T08:47:07.922Z,5.63
2018-07-10T08:49:38.977Z,5.33
2018-07-10T08:52:11.149Z,6.00
2018-07-10T08:54:41.094Z,9.57
2018-07-10T08:57:11.137Z,7.57
2018-07-10T08:59:41.131Z,6.63
2018-07-10T09:02:10.993Z,5.97
2018-07-10T09:04:40.862Z,23.50
2018-07-10T09:07:10.720Z,9.47
2018-07-10T09:09:40.204Z,7.87
2018-07-10T09:12:10.311Z,10.20
2018-07-10T09:14:40.168Z,15.40
2018-07-10T09:17:10.357Z,7.00
2018-07-10T09:19:40.522Z,7.37
2018-07-10T09:22:12.368Z,10.67
2018-07-10T09:24:50.256Z,7.70
2018-07-10T09:27:21.704Z,6.70
2018-07-10T09:29:51.645Z,8.60
2018-07-10T09:32:27.552Z,7.83
2018-07-10T09:34:58.514Z,11.20
2018-07-10T09:37:35.535Z,11.07
2018-07-10T09:40:15.824Z,12.30
2018-07-10T09:42:55.711Z,6.57
2018-07-10T09:45:28.079Z,11.20
2018-07-10T09:47:58.798Z,15.00
2018-07-10T09:50:28.421Z,13.20
2018-07-10T09:52:58.244Z,10.00
2018-07-10T09:55:28.170Z,14.47
2018-07-10T09:57:59.898Z,13.63
2018-07-10T10:00:35.784Z,8.87
2018-07-10T10:03:05.678Z,7.27
2018-07-10T10:05:41.640Z,6.00
2018-07-10T10:08:12.416Z,11.70
2018-07-10T10:10:42.240Z,8.37
2018-07-10T10:13:12.561Z,6.50
2018-07-10T10:15:42.658Z,6.73
2018-07-10T10:18:13.667Z,7.90
2018-07-10T10:20:43.556Z,11.10
2018-07-10T10:23:14.363Z,12.40
2018-07-10T10:25:49.118Z,11.20
2018-07-10T10:28:23.112Z,9.30
2018-07-10T10:30:53.176Z,7.17
2018-07-10T10:33:23.084Z,10.70
2018-07-10T10:35:52.972Z,19.00
2018-07-10T10:38:23.345Z,7.73
2018-07-10T10:40:53.685Z,8.43
2018-07-10T10:43:23.571Z,8.33
2018-07-10T10:45:54.139Z,11.43
2018-07-10T10:48:24.809Z,9.13
2018-07-10T10:50:54.692Z,7.37
2018-07-10T10:53:24.566Z,6.87
2018-07-10T10:55:54.455Z,12.40
2018-07-10T10:58:24.329Z,7.83
2018-07-10T11:00:54.253Z,7.70
2018-07-10T11:03:24.627Z,12.63
2018-07-10T11:05:55.740Z,10.13
2018-07-10T11:08:25.762Z,8.33
2018-07-10T11:10:55.632Z,11.80
2018-07-10T11:13:25.520Z,9.33
2018-07-10T11:15:55.397Z,9.47
2018-07-10T11:18:32.357Z,11.00
2018-07-10T11:22:09.856Z,12.77
2018-07-10T11:25:14.483Z,9.60
2018-07-10T11:28:05.363Z,11.10
2018-07-10T11:30:35.594Z,9.00
2018-07-10T11:33:07.115Z,9.50
2018-07-10T11:35:37.897Z,8.57
2018-07-10T11:38:12.846Z,10.37
2018-07-10T11:40:44.172Z,11.00
2018-07-10T11:43:14.471Z,12.50
2018-07-10T11:45:44.371Z,11.67
2018-07-10T11:48:14.783Z,11.50
2018-07-10T11:50:44.705Z,8.43
2018-07-10T11:53:14.584Z,11.03
2018-07-10T11:55:44.579Z,15.53
2018-07-10T11:58:14.536Z,10.47
2018-07-10T12:00:44.710Z,9.87
2018-07-10T12:03:14.574Z,7.90
2018-07-10T12:05:44.479Z,9.27
2018-07-10T12:08:14.300Z,6.60
2018-07-10T12:10:47.243Z,9.47
2018-07-10T12:13:17.148Z,9.40
2018-07-10T12:15:46.973Z,9.17
2018-07-10T12:18:16.822Z,11.50
2018-07-10T12:20:46.352Z,11.03
2018-07-10T12:23:16.043Z,11.37
2018-07-10T12:25:46.217Z,8.60
2018-07-10T12:28:16.156Z,11.80
2018-07-10T12:30:46.184Z,16.70
2018-07-10T12:33:16.065Z,16.67
2018-07-10T12:35:45.685Z,10.20
2018-07-10T12:38:15.359Z,9.43
2018-07-10T12:40:45.279Z,13.60
2018-07-10T12:43:15.231Z,8.87
2018-07-10T12:45:46.019Z,9.40
2018-07-10T12:48:15.899Z,10.20
2018-07-10T12:50:45.818Z,11.90
2018-07-10T12:53:15.772Z,14.37
2018-07-10T12:55:45.936Z,14.20
2018-07-10T12:58:16.944Z,12.10
2018-07-10T13:00:46.852Z,8.03
2018-07-10T13:03:19.153Z,8.33
2018-07-10T13:05:57.465Z,10.20
2018-07-10T13:08:27.405Z,14.03
2018-07-10T13:10:57.305Z,10.00
2018-07-10T13:13:27.099Z,13.50
2018-07-10T13:15:56.619Z,11.13
2018-07-10T13:18:28.191Z,13.03
2018-07-10T13:20:58.157Z,14.30
2018-07-10T13:23:28.036Z,12.00
2018-07-10T13:25:58.243Z,14.10
2018-07-10T13:28:28.159Z,9.00
2018-07-10T13:30:58.090Z,14.10
2018-07-10T13:33:28.033Z,9.60
2018-07-10T13:35:57.999Z,11.27
2018-07-10T13:38:27.895Z,12.20
2018-07-10T13:41:00.277Z,14.50
2018-07-10T13:43:31.011Z,15.10
2018-07-10T13:46:01.024Z,11.77
2018-07-10T13:48:30.955Z,12.87
2018-07-10T13:51:01.384Z,12.60
2018-07-10T13:53:31.883Z,19.40
2018-07-10T13:56:01.748Z,14.03
2018-07-10T13:58:32.635Z,18.50
2018-07-10T14:01:06.821Z,17.03
2018-07-10T14:03:36.872Z,16.97
2018-07-10T14:06:07.070Z,16.87
2018-07-10T14:08:37.496Z,24.10
2018-07-10T14:11:07.724Z,20.00
2018-07-10T14:13:37.667Z,24.20
2018-07-10T14:16:08.245Z,28.30
2018-07-10T14:18:38.178Z,17.60
2018-07-10T14:21:09.117Z,19.17
2018-07-10T14:23:38.939Z,27.27
2018-07-10T14:26:08.980Z,17.50
2018-07-10T14:28:39.522Z,19.90
2018-07-10T14:31:09.401Z,18.73
2018-07-10T14:33:40.381Z,17.17
2018-07-10T14:36:10.297Z,21.50
2018-07-10T14:38:41.648Z,22.87
2018-07-10T14:41:12.241Z,20.47
2018-07-10T14:43:43.986Z,18.87
2018-07-10T14:46:19.541Z,19.23
2018-07-10T14:48:52.396Z,19.10
2018-07-10T14:51:27.375Z,19.70
2018-07-10T14:53:57.389Z,20.47
2018-07-10T14:56:27.896Z,20.70
2018-07-10T14:58:57.965Z,19.87
2018-07-10T15:01:27.836Z,30.77
2018-07-10T15:03:57.852Z,22.80
2018-07-10T15:06:27.763Z,28.20
2018-07-10T15:08:58.197Z,22.63
2018-07-10T15:11:28.061Z,28.70
2018-07-10T15:14:01.019Z,24.63
2018-07-10T15:16:36.197Z,24.00
2018-07-10T15:19:06.172Z,23.77
2018-07-10T15:21:36.604Z,25.63
2018-07-10T15:24:07.740Z,27.90
2018-07-10T15:26:37.771Z,23.47
2018-07-10T15:29:07.852Z,29.90
2018-07-10T15:31:37.743Z,29.57
2018-07-10T15:34:07.632Z,28.23
2018-07-10T15:36:38.039Z,25.93
2018-07-10T15:39:07.951Z,36.00
2018-07-10T15:41:37.898Z,25.10
2018-07-10T15:44:08.607Z,30.73
2018-07-10T15:46:38.538Z,30.63
2018-07-10T15:49:08.537Z,31.37
2018-07-10T15:51:38.454Z,29.23
2018-07-10T15:54:09.241Z,31.00
2018-07-10T15:56:39.773Z,25.50
2018-07-10T15:59:09.822Z,28.77
2018-07-10T16:01:39.780Z,26.97
2018-07-10T16:04:09.720Z,29.10
2018-07-10T16:06:39.660Z,25.17
2018-07-10T16:09:15.570Z,30.77
2018-07-10T16:11:46.177Z,22.13
2018-07-10T16:14:16.157Z,25.90
2018-07-10T16:16:47.193Z,21.73
2018-07-10T16:19:24.008Z,22.80
2018-07-10T16:22:00.641Z,20.43
2018-07-10T16:24:34.489Z,27.17
2018-07-10T16:27:04.910Z,25.97
2018-07-10T16:29:34.990Z,25.87
2018-07-10T16:32:07.213Z,25.77
2018-07-10T16:34:37.273Z,23.63
2018-07-10T16:37:08.122Z,21.70
2018-07-10T16:39:38.048Z,19.23
2018-07-10T16:42:13.159Z,19.40
2018-07-10T16:44:43.787Z,20.13
2018-07-10T16:47:19.939Z,20.90
2018-07-10T16:49:49.837Z,19.43
2018-07-10T16:53:02.276Z,15.40
2018-07-10T16:55:33.434Z,16.63
2018-07-10T16:58:03.366Z,19.17
2018-07-10T17:00:33.292Z,18.60
2018-07-10T17:03:03.216Z,21.03
2018-07-10T17:05:33.240Z,15.90
2018-07-10T17:08:03.184Z,21.47
2018-07-10T17:10:33.588Z,17.90
2018-07-10T17:13:04.109Z,19.37
2018-07-10T17:15:34.725Z,17.10
2018-07-10T17:18:04.700Z,15.73
2018-07-10T17:20:34.621Z,18.53
2018-07-10T17:23:04.586Z,15.07
2018-07-10T17:25:34.510Z,14.43
2018-07-10T17:28:04.523Z,20.80
2018-07-10T17:30:34.451Z,18.17
2018-07-10T17:33:04.343Z,17.70
2018-07-10T17:35:37.267Z,21.10
2018-07-10T17:38:08.910Z,24.47
2018-07-10T17:40:39.697Z,17.47
2018-07-10T17:43:09.700Z,17.23
2018-07-10T17:45:40.517Z,18.87
2018-07-10T17:48:10.532Z,24.20
2018-07-10T17:50:40.546Z,22.47
2018-07-10T17:53:10.088Z,20.40
2018-07-10T17:55:39.800Z,18.10
2018-07-10T17:58:09.925Z,24.53
2018-07-10T18:00:41.526Z,25.40
2018-07-10T18:03:12.058Z,21.50
2018-07-10T18:05:41.955Z,19.90
2018-07-10T18:08:13.028Z,20.30
2018-07-10T18:10:42.978Z,24.77
2018-07-10T18:13:13.634Z,21.50
2018-07-10T18:15:43.894Z,21.73
2018-07-10T18:18:13.795Z,18.40
2018-07-10T18:20:43.783Z,16.37
2018-07-10T18:23:13.748Z,15.60
2018-07-10T18:25:45.816Z,15.13
2018-07-10T18:28:15.648Z,13.83
2018-07-10T18:30:45.566Z,13.20
2018-07-10T18:33:15.601Z,11.33
2018-07-10T18:35:45.598Z,9.07
2018-07-10T18:38:15.485Z,11.70
2018-07-10T18:40:45.577Z,6.90
2018-07-10T18:43:15.457Z,8.57
2018-07-10T18:45:46.096Z,7.27
2018-07-10T18:48:21.528Z,6.17
2018-07-10T18:50:52.079Z,5.37
2018-07-10T18:53:22.032Z,5.37
2018-07-10T18:55:52.948Z,5.03
2018-07-10T18:58:32.084Z,4.60
2018-07-10T19:01:08.668Z,5.53
2018-07-10T19:03:38.936Z,4.43
2018-07-10T19:06:13.383Z,4.20
2018-07-10T19:08:44.967Z,5.10
2018-07-10T19:11:18.104Z,5.63
2018-07-10T19:13:48.025Z,5.33
2018-07-10T19:16:18.514Z,5.70
2018-07-10T19:18:51.342Z,5.77
2018-07-10T19:21:25.683Z,6.03
2018-07-10T19:23:58.176Z,5.17
2018-07-10T19:26:29.450Z,4.73
2018-07-10T19:30:06.678Z,8.60
2018-07-10T19:32:36.991Z,5.00
2018-07-10T19:35:06.657Z,4.53
2018-07-10T19:37:37.924Z,4.80
2018-07-10T19:40:08.017Z,8.00
2018-07-10T19:42:39.259Z,5.80
2018-07-10T19:45:09.825Z,4.87
2018-07-10T19:47:39.730Z,5.93
2018-07-10T19:50:14.894Z,9.27
2018-07-10T19:52:51.041Z,3.80
2018-07-10T19:55:23.045Z,3.60
2018-07-10T19:58:05.733Z,3.63
2018-07-10T20:00:41.713Z,4.00
2018-07-10T20:03:17.023Z,4.20
2018-07-10T20:05:47.037Z,4.27
2018-07-10T20:08:17.173Z,6.10
2018-07-10T20:10:50.484Z,5.27
2018-07-10T20:13:28.518Z,3.50
2018-07-10T20:16:05.373Z,4.20
2018-07-10T20:20:47.206Z,4.23
2018-07-10T20:23:24.399Z,3.17
2018-07-10T20:26:17.308Z,4.07
2018-07-10T20:29:56.135Z,3.83
2018-07-10T20:32:31.715Z,3.87
2018-07-10T20:35:08.540Z,4.97
2018-07-10T20:37:39.020Z,5.70
2018-07-10T20:40:09.411Z,2.50
2018-07-10T20:42:41.306Z,2.60
2018-07-10T20:45:11.188Z,6.80
2018-07-10T20:47:52.346Z,3.13
2018-07-10T20:50:33.124Z,2.67
2018-07-10T20:53:26.521Z,3.37
2018-07-10T20:57:04.818Z,3.00
2018-07-10T20:59:45.356Z,4.00
2018-07-10T21:02:25.233Z,4.20
2018-07-10T21:05:11.804Z,2.63
2018-07-10T21:07:56.385Z,3.63
2018-07-10T21:10:34.328Z,2.30
2018-07-10T21:13:10.905Z,3.50
2018-07-10T21:15:58.583Z,3.50
2018-07-10T21:19:30.135Z,2.63
2018-07-10T21:22:06.094Z,2.20
2018-07-10T21:26:18.070Z,2.50
2018-07-10T21:28:52.473Z,3.83
2018-07-10T21:31:29.206Z,4.70
2018-07-10T21:34:15.508Z,3.20
2018-07-10T21:37:24.423Z,3.40
2018-07-10T21:40:12.472Z,2.97
2018-07-10T21:42:52.965Z,2.90
2018-07-10T21:45:38.411Z,3.30
2018-07-10T21:48:23.854Z,2.83
2018-07-10T21:50:54.161Z,3.07
2018-07-10T21:53:24.848Z,2.87
2018-07-10T21:55:54.828Z,3.10
2018-07-10T21:58:25.099Z,2.90
2018-07-10T22:01:59.360Z,3.13
2018-07-10T22:04:31.999Z,3.07
2018-07-10T22:07:02.264Z,7.10
2018-07-10T22:09:34.692Z,3.10
2018-07-10T22:12:07.183Z,3.60
2018-07-10T22:14:37.050Z,3.53
2018-07-10T22:17:16.629Z,4.70
2018-07-10T22:19:48.014Z,4.07
2018-07-10T22:22:25.493Z,4.37
2018-07-10T22:24:56.551Z,3.93
2018-07-10T22:27:26.771Z,4.20
2018-07-10T22:30:02.287Z,4.80
2018-07-10T22:32:40.793Z,4.40
2018-07-10T22:35:10.672Z,4.97
2018-07-10T22:37:40.643Z,4.53
2018-07-10T22:40:11.418Z,4.90
2018-07-10T22:42:41.052Z,4.67
2018-07-10T22:45:11.142Z,5.10
2018-07-10T22:47:43.400Z,5.07
2018-07-10T22:50:18.092Z,5.13
2018-07-10T22:52:55.934Z,5.83
2018-07-10T22:55:28.706Z,6.63
2018-07-10T22:58:07.630Z,6.17
2018-07-10T23:00:41.045Z,6.87
2018-07-10T23:03:16.685Z,5.30
2018-07-10T23:05:48.420Z,5.40
2018-07-10T23:08:20.081Z,6.30
2018-07-10T23:10:50.099Z,6.90
2018-07-10T23:13:20.414Z,8.03
2018-07-10T23:15:50.637Z,7.40
2018-07-10T23:18:20.314Z,10.70
2018-07-10T23:20:49.960Z,8.63
2018-07-10T23:23:20.415Z,8.57
2018-07-10T23:25:50.068Z,8.00
2018-07-10T23:28:20.240Z,9.40
2018-07-10T23:30:50.599Z,8.60
2018-07-10T23:33:21.295Z,8.07
2018-07-10T23:35:58.447Z,9.20
2018-07-10T23:38:39.321Z,9.20
2018-07-10T23:41:30.448Z,9.50
2018-07-10T23:44:00.342Z,11.53
2018-07-10T23:46:32.845Z,11.43
2018-07-10T23:49:11.497Z,10.27
2018-07-10T23:51:46.080Z,9.00
2018-07-10T23:54:15.383Z,11.13
2018-07-10T23:56:44.982Z,9.23
2018-07-10T23:59:14.925Z,10.30
